Time;durP1;ratioP1;P1;durP2;ratioP2;P2;SDS_P1;SDS_P2;PMS_P1;PMS_P2;Temp;Humidity;BMP_temperature;BMP_pressure;BME280_temperature;BME280_humidity;BME280_pressure;Samples;Min_cycle;Max_cycle;Signal;HPM_P1;HPM_P2
2022/12/28 05:31:59;;;;;;;;;4.00;2.00;;;;;11.11;82.97;101507.97;6233310;22;45331;-64
2022/12/28 05:34:25;;;;;;;;;6.33;4.67;;;;;11.06;83.50;101495.72;6248358;22;45901;-65
2022/12/28 05:36:50;;;;;;;;;5.33;3.67;;;;;11.07;82.82;101507.25;6247569;22;66694;-65
2022/12/28 05:39:15;;;;;;;;;2.67;2.67;;;;;11.06;83.80;101509.03;6248610;22;51591;-65
2022/12/28 05:41:42;;;;;;;;;3.67;3.00;;;;;11.03;85.30;101503.84;6247851;22;45226;-66
2022/12/28 05:44:07;;;;;;;;;4.00;3.00;;;;;11.06;84.53;101506.38;6248238;22;65662;-64
2022/12/28 05:46:33;;;;;;;;;2.00;2.00;;;;;11.05;84.87;101490.47;6248494;22;62870;-64
2022/12/28 05:48:59;;;;;;;;;4.00;4.00;;;;;11.03;85.02;101503.84;6248783;22;45343;-64
2022/12/28 05:51:30;;;;;;;;;6.33;4.00;;;;;11.05;85.35;101504.63;6249229;22;45225;-65
2022/12/28 05:53:58;;;;;;;;;7.00;3.67;;;;;11.08;85.01;101508.97;6247748;22;46158;-65
2022/12/28 05:56:25;;;;;;;;;6.00;3.00;;;;;11.09;85.01;101492.94;6248837;22;45244;-65
2022/12/28 05:58:56;;;;;;;;;6.33;3.33;;;;;11.13;84.89;101493.66;6248321;22;45315;-65
2022/12/28 06:01:24;;;;;;;;;3.00;3.00;;;;;11.17;84.74;101491.75;6247078;22;45666;-65
2022/12/28 06:03:56;;;;;;;;;4.00;4.00;;;;;11.19;85.12;101484.56;6245586;22;46033;-65
2022/12/28 06:06:22;;;;;;;;;3.00;3.00;;;;;11.18;84.62;101490.81;6246994;22;45286;-65
2022/12/28 06:08:48;;;;;;;;;3.00;2.00;;;;;11.18;84.87;101486.34;6246665;22;45145;-65
2022/12/28 06:11:16;;;;;;;;;5.33;4.33;;;;;11.18;85.33;101491.69;6246923;22;45274;-65
2022/12/28 06:13:42;;;;;;;;;4.33;1.67;;;;;11.17;85.64;101481.97;6246322;22;47150;-64
2022/12/28 06:16:15;;;;;;;;;2.67;2.67;;;;;11.18;85.04;101480.16;6246161;22;50886;-65
2022/12/28 06:18:41;;;;;;;;;6.67;3.00;;;;;11.17;84.99;101473.09;6246504;22;45311;-64
2022/12/28 06:21:12;;;;;;;;;4.00;4.00;;;;;11.13;86.05;101472.38;6247411;22;45323;-65
2022/12/28 06:23:38;;;;;;;;;4.00;2.33;;;;;11.14;85.59;101458.13;6246240;22;46163;-65
2022/12/28 06:26:06;;;;;;;;;4.67;4.67;;;;;11.14;86.15;101465.25;6246351;22;45333;-65
2022/12/28 06:28:31;;;;;;;;;5.00;2.00;;;;;11.14;85.80;101465.25;6247285;22;45182;-65
2022/12/28 06:31:07;;;;;;;;;6.00;4.67;;;;;11.14;86.12;101452.81;6244311;22;45332;-65
2022/12/28 06:33:33;;;;;;;;;7.33;5.67;;;;;11.17;86.84;101460.69;6246716;22;45327;-64
2022/12/28 06:35:59;;;;;;;;;2.33;2.33;;;;;11.20;85.39;101446.38;6246785;22;45457;-65
2022/12/28 06:38:25;;;;;;;;;3.67;2.00;;;;;11.20;86.88;101451.69;6246770;22;45177;-64
2022/12/28 06:40:51;;;;;;;;;3.33;3.33;;;;;11.24;86.10;101445.31;6246188;22;45283;-65
2022/12/28 06:43:16;;;;;;;;;4.00;4.00;;;;;11.25;85.88;101439.91;6247083;22;45170;-66
2022/12/28 06:45:42;;;;;;;;;5.67;4.00;;;;;11.28;85.72;101446.00;6245671;22;64975;-65
2022/12/28 06:48:07;;;;;;;;;6.33;4.00;;;;;11.29;85.50;101439.75;6246230;22;45372;-65
2022/12/28 06:50:32;;;;;;;;;4.67;3.00;;;;;11.29;85.37;101434.44;6246487;22;58373;-66
2022/12/28 06:52:57;;;;;;;;;4.67;4.00;;;;;11.31;86.02;101432.59;6245963;22;63992;-65
2022/12/28 06:55:23;;;;;;;;;7.33;7.33;;;;;11.35;85.06;101439.50;6245698;22;62389;-66
2022/12/28 06:57:48;;;;;;;;;5.00;4.67;;;;;11.38;84.70;101434.91;6246432;22;45520;-66
2022/12/28 07:00:14;;;;;;;;;3.67;3.00;;;;;11.42;84.32;101427.66;6245746;22;45765;-66
2022/12/28 07:02:39;;;;;;;;;4.00;2.33;;;;;11.47;83.82;101419.47;6246630;22;46146;-66
2022/12/28 07:05:05;;;;;;;;;3.00;3.00;;;;;11.48;83.21;101431.84;6220490;22;45238;-66
2022/12/28 07:07:31;;;;;;;;;3.33;3.00;;;;;11.49;83.25;101428.25;6195163;22;45205;-65
2022/12/28 07:09:56;;;;;;;;;4.00;4.00;;;;;11.46;83.07;101426.59;6218952;22;45573;-65
2022/12/28 07:12:21;;;;;;;;;5.67;3.00;;;;;11.48;83.15;101422.06;6245891;22;63353;-65
2022/12/28 07:14:47;;;;;;;;;5.33;4.00;;;;;11.53;82.97;101417.38;6245666;22;45337;-65
2022/12/28 07:17:12;;;;;;;;;3.00;3.00;;;;;11.55;82.75;101419.97;6246257;22;59318;-65
2022/12/28 07:19:37;;;;;;;;;2.00;2.00;;;;;11.56;82.10;101403.94;6245434;22;54757;-65
2022/12/28 07:22:03;;;;;;;;;4.67;4.00;;;;;11.55;82.13;101409.31;6245137;22;46204;-65
2022/12/28 07:24:28;;;;;;;;;5.00;4.00;;;;;11.55;82.24;101404.00;6245813;22;65914;-65
2022/12/28 07:26:53;;;;;;;;;4.33;4.33;;;;;11.58;81.93;101395.88;6244803;22;60874;-65
2022/12/28 07:29:19;;;;;;;;;6.67;6.00;;;;;11.60;81.67;101391.34;6246345;22;55062;-65
2022/12/28 07:31:44;;;;;;;;;5.00;3.00;;;;;11.63;81.52;101382.34;6217539;22;64436;-63
2022/12/28 07:34:09;;;;;;;;;6.00;4.00;;;;;11.63;81.44;101388.56;6245570;22;64306;-64
2022/12/28 07:36:35;;;;;;;;;4.33;3.00;;;;;11.65;81.09;101380.47;6246878;22;45499;-64
2022/12/28 07:39:01;;;;;;;;;4.33;4.33;;;;;11.66;81.01;101387.53;6246227;22;45327;-64
2022/12/28 07:41:37;;;;;;;;;5.33;2.33;;;;;11.64;81.10;101390.28;6219051;22;46829;-63
2022/12/28 07:44:02;;;;;;;;;5.67;4.00;;;;;11.63;80.78;101369.91;6246597;22;45241;-63
2022/12/28 07:46:30;;;;;;;;;5.00;3.00;;;;;11.64;81.02;101366.31;6247098;22;45232;-63
2022/12/28 07:48:56;;;;;;;;;5.67;2.67;;;;;11.64;80.60;101376.06;6246195;22;45363;-64
2022/12/28 07:51:33;;;;;;;;;3.67;3.00;;;;;11.66;80.19;101374.22;6247060;22;45369;-63
2022/12/28 07:53:59;;;;;;;;;3.00;3.00;;;;;11.64;80.59;101368.09;6245965;22;45273;-63
2022/12/28 07:56:26;;;;;;;;;4.67;4.67;;;;;11.64;80.39;101366.31;6246005;22;57003;-63
2022/12/28 07:58:55;;;;;;;;;3.00;3.00;;;;;11.64;79.99;101360.97;6246349;22;45327;-62
2022/12/28 08:01:22;;;;;;;;;3.00;3.00;;;;;11.64;80.13;101344.09;6219176;22;46077;-63
2022/12/28 08:03:51;;;;;;;;;6.00;3.00;;;;;11.64;79.95;101352.09;6245853;22;45295;-63
2022/12/28 08:06:22;;;;;;;;;3.00;2.67;;;;;11.63;79.63;101359.25;6247077;22;45468;-63
2022/12/28 08:08:49;;;;;;;;;5.33;4.00;;;;;11.64;79.94;101345.00;6245342;22;45764;-63
2022/12/28 08:11:35;;;;;;;;;5.00;3.00;;;;;11.68;80.01;101338.56;6245524;22;46158;-63
2022/12/28 08:14:01;;;;;;;;;3.00;3.00;;;;;11.69;79.64;101348.31;6245712;22;45548;-64
2022/12/28 08:16:32;;;;;;;;;4.00;3.00;;;;;11.69;79.21;101337.66;6219272;22;45285;-64
2022/12/28 08:18:58;;;;;;;;;7.00;2.00;;;;;11.69;79.02;101329.66;6245528;22;45287;-64
2022/12/28 08:21:28;;;;;;;;;1.67;1.67;;;;;11.69;79.07;101326.09;6245868;22;45315;-64
2022/12/28 08:23:54;;;;;;;;;2.00;2.00;;;;;11.67;79.29;101323.53;6245015;22;45295;-63
2022/12/28 08:26:24;;;;;;;;;2.67;2.00;;;;;11.68;78.88;101316.38;6246860;22;45237;-63
2022/12/28 08:28:51;;;;;;;;;4.33;2.67;;;;;11.69;79.03;101311.00;6244924;22;45730;-64
2022/12/28 08:31:20;;;;;;;;;1.00;0.00;;;;;11.70;78.67;101306.53;6244914;22;45524;-64
2022/12/28 08:33:45;;;;;;;;;3.00;3.00;;;;;11.70;78.97;101317.19;6244373;22;45506;-64
2022/12/28 08:36:11;;;;;;;;;5.33;4.67;;;;;11.72;78.77;101313.50;6246690;22;45392;-63
2022/12/28 08:38:38;;;;;;;;;3.67;3.33;;;;;11.70;78.58;101323.38;6246488;22;45308;-64
2022/12/28 08:41:05;;;;;;;;;4.33;3.00;;;;;11.73;78.31;101315.25;6245619;22;46354;-64
2022/12/28 08:43:31;;;;;;;;;5.67;5.00;;;;;11.72;78.79;101305.50;6246526;22;45301;-64
2022/12/28 08:46:10;;;;;;;;;4.00;4.00;;;;;11.78;78.51;101314.16;6244978;22;45332;-63
2022/12/28 08:48:35;;;;;;;;;3.00;3.00;;;;;11.82;78.33;101318.41;6246375;22;45532;-64
2022/12/28 08:51:03;;;;;;;;;5.00;5.00;;;;;11.86;77.45;101312.88;6245586;22;53655;-64
2022/12/28 08:53:29;;;;;;;;;4.00;3.00;;;;;11.83;77.68;101306.81;6245824;22;45391;-63
2022/12/28 08:55:54;;;;;;;;;9.33;3.00;;;;;11.84;77.60;101300.56;6245626;22;45961;-64
2022/12/28 08:58:20;;;;;;;;;3.67;3.33;;;;;11.85;77.52;101308.47;6246369;22;45514;-64
2022/12/28 09:00:45;;;;;;;;;4.00;3.67;;;;;11.87;77.15;101285.25;6245786;22;45492;-63
2022/12/28 09:03:10;;;;;;;;;4.00;3.33;;;;;11.89;77.05;101303.88;6245833;22;45279;-63
2022/12/28 09:05:39;;;;;;;;;5.00;4.67;;;;;11.91;77.33;101291.31;6245606;22;58045;-64
2022/12/28 09:08:04;;;;;;;;;6.33;5.67;;;;;11.97;76.92;101292.84;6244825;22;45518;-63
2022/12/28 09:10:30;;;;;;;;;5.00;3.00;;;;;12.01;77.06;101292.63;6245611;22;45169;-63
2022/12/28 09:12:55;;;;;;;;;2.33;2.33;;;;;12.08;76.55;101282.53;6245461;22;45316;-63
2022/12/28 09:15:21;;;;;;;;;4.67;4.00;;;;;12.15;76.00;101286.63;6245743;22;59059;-64
2022/12/28 09:17:47;;;;;;;;;3.00;3.00;;;;;12.18;76.09;101290.97;6244194;22;58541;-64
2022/12/28 09:20:12;;;;;;;;;3.33;3.33;;;;;12.23;76.07;101291.59;6246326;22;45989;-64
2022/12/28 09:22:37;;;;;;;;;6.33;4.00;;;;;12.29;75.32;101288.59;6245287;22;62145;-64
2022/12/28 09:25:03;;;;;;;;;3.67;2.00;;;;;12.31;74.86;101286.75;6245308;22;56701;-64
2022/12/28 09:27:28;;;;;;;;;4.00;3.00;;;;;12.29;74.63;101275.28;6245586;22;45241;-64
2022/12/28 09:29:53;;;;;;;;;3.33;2.00;;;;;12.31;74.51;101276.06;6245897;22;46033;-64
2022/12/28 09:32:19;;;;;;;;;5.00;5.00;;;;;12.31;74.66;101276.06;6244683;22;62213;-65
2022/12/28 09:34:44;;;;;;;;;4.00;3.00;;;;;12.34;74.24;101269.72;6244900;22;59777;-63
2022/12/28 09:37:09;;;;;;;;;5.67;4.00;;;;;12.32;74.20;101264.47;6246042;22;54249;-64
2022/12/28 09:39:35;;;;;;;;;5.67;4.00;;;;;12.33;74.39;101273.31;6247505;22;45205;-64
2022/12/28 09:42:11;;;;;;;;;5.00;4.00;;;;;12.37;74.09;101266.88;6246275;22;45766;-64
2022/12/28 09:45:03;;;;;;;;;3.00;3.00;;;;;12.35;74.12;101282.13;6242500;22;45514;-64
2022/12/28 09:47:43;;;;;;;;;6.00;4.00;;;;;12.36;74.13;101282.03;6218853;22;45344;-64
2022/12/28 09:50:17;;;;;;;;;5.00;5.00;;;;;12.45;73.75;101280.72;6246065;22;46901;-64
2022/12/28 09:53:04;;;;;;;;;4.33;4.00;;;;;12.43;73.70;101269.25;6246276;22;45380;-63
2022/12/28 09:55:30;;;;;;;;;3.67;3.67;;;;;12.46;73.55;101268.25;6244876;22;45265;-63
2022/12/28 09:57:58;;;;;;;;;4.00;4.00;;;;;12.49;73.53;101278.75;6218457;22;45642;-63
2022/12/28 10:00:27;;;;;;;;;3.00;3.00;;;;;12.49;73.40;101279.63;6220115;22;46593;-63
2022/12/28 10:02:59;;;;;;;;;6.00;4.00;;;;;12.62;72.92;101271.88;6244760;22;45657;-62
2022/12/28 10:05:25;;;;;;;;;3.00;3.00;;;;;12.73;72.66;101264.16;6217981;22;45261;-63
2022/12/28 10:07:52;;;;;;;;;7.33;4.00;;;;;12.82;72.57;101254.81;6218424;22;45331;-63
2022/12/28 10:10:19;;;;;;;;;3.00;3.00;;;;;13.02;72.11;101251.09;6245282;22;46419;-63
2022/12/28 10:12:46;;;;;;;;;5.00;4.00;;;;;13.04;70.85;101251.00;6219428;22;45327;-63
2022/12/28 10:15:13;;;;;;;;;5.00;5.00;;;;;13.02;70.52;101250.22;6246661;22;45274;-62
2022/12/28 10:17:39;;;;;;;;;4.67;3.33;;;;;13.00;70.87;101257.47;6219031;22;45427;-62
2022/12/28 10:20:06;;;;;;;;;5.00;5.00;;;;;13.00;70.28;101242.28;6216799;22;66013;-62
2022/12/28 10:22:38;;;;;;;;;5.00;3.67;;;;;13.03;70.05;101259.97;6242564;22;45292;-62
2022/12/28 10:25:12;;;;;;;;;7.00;6.33;;;;;13.01;70.76;101248.50;6242847;22;45447;-60
2022/12/28 10:27:37;;;;;;;;;2.67;2.67;;;;;13.01;70.60;101243.16;6190030;22;45933;-61
2022/12/28 10:30:14;;;;;;;;;5.67;5.67;;;;;12.97;70.30;101236.25;6245371;22;55132;-61
2022/12/28 10:32:52;;;;;;;;;7.00;4.00;;;;;12.91;70.49;101246.31;6244049;22;45342;-61
2022/12/28 10:35:23;;;;;;;;;7.00;5.00;;;;;12.82;70.21;101243.28;6246369;22;45260;-60
2022/12/28 10:37:49;;;;;;;;;3.67;3.67;;;;;12.75;70.36;101245.41;6218308;22;45518;-61
2022/12/28 10:40:40;;;;;;;;;4.00;4.00;;;;;12.74;70.40;101231.19;6246182;22;58048;-64
2022/12/28 10:43:17;;;;;;;;;6.00;3.00;;;;;12.74;70.00;101241.00;6221479;22;45171;-65
2022/12/28 10:45:48;;;;;;;;;2.33;2.33;;;;;12.65;70.55;101231.66;6219481;22;45325;-62
2022/12/28 10:48:20;;;;;;;;;9.33;8.33;;;;;12.68;70.47;101226.16;6219634;22;45288;-64
2022/12/28 10:50:53;;;;;;;;;6.00;5.00;;;;;12.74;70.45;101231.19;6216895;22;46235;-60
2022/12/28 10:53:32;;;;;;;;;6.67;4.67;;;;;12.78;70.17;101228.38;6218504;22;45422;-61
2022/12/28 10:56:01;;;;;;;;;1.33;1.33;;;;;12.77;69.68;101221.31;6218798;22;45733;-62
2022/12/28 10:58:27;;;;;;;;;3.33;3.00;;;;;12.67;69.88;101224.44;6246354;22;45245;-61
2022/12/28 11:00:54;;;;;;;;;4.00;2.00;;;;;12.64;69.77;101221.06;6245417;22;45719;-60
2022/12/28 11:03:55;;;;;;;;;4.00;2.00;;;;;12.67;69.99;101208.44;6219420;22;45255;-61
2022/12/28 11:06:23;;;;;;;;;4.00;4.00;;;;;12.80;69.93;101189.97;6241726;22;45279;-61
2022/12/28 11:09:36;;;;;;;;;3.33;3.33;;;;;12.90;68.97;101185.84;6243394;22;45256;-62
2022/12/28 11:12:24;;;;;;;;;2.00;2.00;;;;;12.91;68.57;101192.91;6220211;22;45443;-62
2022/12/28 11:14:51;;;;;;;;;3.67;3.00;;;;;12.89;68.84;101162.78;6246149;22;45728;-61
2022/12/28 11:17:22;;;;;;;;;1.33;1.00;;;;;13.00;68.84;101154.19;6246413;22;45303;-61
2022/12/28 11:19:50;;;;;;;;;6.00;3.00;;;;;13.12;67.76;101146.44;6219021;22;45396;-61
2022/12/28 11:22:21;;;;;;;;;2.00;2.00;;;;;13.19;67.78;101147.81;6193849;22;47279;-61
2022/12/28 11:24:46;;;;;;;;;5.00;3.33;;;;;13.20;67.61;101147.72;6218883;22;45286;-61
2022/12/28 11:27:16;;;;;;;;;3.00;3.00;;;;;13.22;67.28;101145.84;6245502;22;45446;-61
2022/12/28 11:29:44;;;;;;;;;4.00;4.00;;;;;13.21;67.54;101137.94;6219357;22;45207;-62
2022/12/28 11:32:25;;;;;;;;;1.00;0.33;;;;;13.24;67.17;101138.63;6219052;22;46600;-61
2022/12/28 11:34:53;;;;;;;;;3.00;3.00;;;;;13.24;67.09;101135.06;6246055;22;45259;-61
2022/12/28 11:37:18;;;;;;;;;3.00;3.00;;;;;13.29;67.24;101129.50;6219852;22;45350;-61
2022/12/28 11:39:46;;;;;;;;;2.33;2.33;;;;;13.30;67.14;101120.53;6245458;22;61583;-61
2022/12/28 11:42:34;;;;;;;;;2.67;2.67;;;;;13.26;66.63;101111.81;6246033;22;46221;-61
2022/12/28 11:45:13;;;;;;;;;3.33;3.33;;;;;13.24;66.91;101113.69;6235614;22;45326;-61
2022/12/28 11:47:39;;;;;;;;;4.00;3.00;;;;;13.26;66.63;101103.81;6219714;22;45591;-61
2022/12/28 11:50:32;;;;;;;;;4.00;3.00;;;;;13.23;66.51;101109.31;6218562;22;61257;-61
2022/12/28 11:52:58;;;;;;;;;1.67;1.67;;;;;13.17;65.86;101096.31;6246169;22;45248;-61
2022/12/28 11:55:24;;;;;;;;;1.33;1.33;;;;;13.13;66.51;101100.06;6246101;22;45172;-61
2022/12/28 11:57:49;;;;;;;;;3.00;3.00;;;;;13.12;66.60;101099.22;6217532;22;45485;-61
2022/12/28 12:00:18;;;;;;;;;3.00;3.00;;;;;13.04;66.46;101094.31;6219515;22;45593;-62
2022/12/28 12:02:56;;;;;;;;;4.00;4.00;;;;;12.99;66.71;101093.72;6245667;22;45289;-62
2022/12/28 12:05:37;;;;;;;;;5.33;5.00;;;;;12.94;66.90;101071.75;6219458;22;45328;-61
2022/12/28 12:08:11;;;;;;;;;4.67;3.00;;;;;12.94;67.03;101071.75;6244983;22;45554;-62
2022/12/28 12:10:38;;;;;;;;;2.33;2.33;;;;;12.94;67.25;101062.88;6245141;22;45330;-61
2022/12/28 12:13:22;;;;;;;;;4.00;3.00;;;;;12.93;66.95;101061.16;6245123;22;46875;-61
2022/12/28 12:15:48;;;;;;;;;4.67;4.33;;;;;12.89;67.34;101055.13;6245888;22;45375;-61
2022/12/28 12:18:19;;;;;;;;;2.00;2.00;;;;;12.89;67.67;101047.09;6245814;22;54368;-61
2022/12/28 12:20:56;;;;;;;;;3.00;3.00;;;;;12.90;67.52;101057.69;6219194;22;45185;-61
2022/12/28 12:23:50;;;;;;;;;3.00;2.00;;;;;12.91;67.63;101055.91;6219874;22;45334;-62
2022/12/28 12:26:19;;;;;;;;;4.00;4.00;;;;;12.92;67.67;101038.94;6216852;22;45216;-62
2022/12/28 12:28:50;;;;;;;;;3.33;3.33;;;;;12.91;67.51;101051.41;6245511;22;45292;-62
2022/12/28 12:31:30;;;;;;;;;4.00;2.67;;;;;12.91;67.52;101032.72;6217601;22;45525;-62
2022/12/28 12:34:04;;;;;;;;;3.00;3.00;;;;;12.92;67.51;101028.25;6218625;22;45345;-60
2022/12/28 12:36:53;;;;;;;;;4.00;4.00;;;;;12.94;67.70;101023.69;6219221;22;45642;-61
2022/12/28 12:39:57;;;;;;;;;4.00;4.00;;;;;12.99;67.63;101023.44;6246535;22;45245;-62
2022/12/28 12:42:34;;;;;;;;;5.00;4.00;;;;;13.02;67.47;101015.25;6246386;22;45205;-62
2022/12/28 12:45:22;;;;;;;;;2.00;2.00;;;;;13.06;67.67;101017.66;6194174;22;45941;-62
2022/12/28 12:48:05;;;;;;;;;3.00;3.00;;;;;13.05;67.34;101009.75;6245549;22;45276;-63
2022/12/28 12:50:54;;;;;;;;;3.67;3.67;;;;;13.03;67.26;100995.59;6246719;22;45236;-62
2022/12/28 12:53:29;;;;;;;;;3.33;2.67;;;;;13.04;67.42;100995.50;6245414;22;45741;-61
2022/12/28 12:56:17;;;;;;;;;4.33;3.00;;;;;13.05;67.34;100977.69;6245599;22;46281;-62
2022/12/28 12:58:52;;;;;;;;;5.67;3.67;;;;;13.05;67.62;100977.69;6218714;22;45289;-62
2022/12/28 13:02:11;;;;;;;;;4.67;4.00;;;;;13.05;67.42;100977.69;6218722;22;45254;-62
2022/12/28 13:04:40;;;;;;;;;4.00;2.33;;;;;13.05;67.64;100973.22;6167751;22;45822;-62
2022/12/28 13:07:15;;;;;;;;;4.33;4.33;;;;;13.06;67.42;100958.91;6218310;22;45250;-61
2022/12/28 13:09:41;;;;;;;;;6.00;4.33;;;;;13.10;67.33;100964.06;6220000;22;45858;-62
2022/12/28 13:12:14;;;;;;;;;5.67;4.33;;;;;13.05;67.32;100929.63;6246895;22;50092;-62
2022/12/28 13:14:43;;;;;;;;;6.00;5.00;;;;;13.00;67.40;100942.41;6220653;22;45304;-62
2022/12/28 13:17:15;;;;;;;;;4.00;3.00;;;;;13.00;67.41;100927.22;6219565;22;45222;-62
2022/12/28 13:19:40;;;;;;;;;5.00;5.00;;;;;12.99;67.69;100928.16;6247651;22;45272;-62
2022/12/28 13:22:25;;;;;;;;;2.67;2.67;;;;;12.98;67.38;100917.59;6246268;22;58417;-62
2022/12/28 13:24:50;;;;;;;;;4.00;4.00;;;;;12.96;67.67;100909.66;6246494;22;45360;-62
2022/12/28 13:27:18;;;;;;;;;5.00;4.33;;;;;12.97;67.60;100903.38;6246415;22;62322;-62
2022/12/28 13:29:50;;;;;;;;;4.00;4.00;;;;;12.94;67.63;100902.69;6247011;22;45170;-62
2022/12/28 13:32:30;;;;;;;;;4.33;4.33;;;;;12.94;67.52;100892.88;6219403;22;45309;-62
2022/12/28 13:34:56;;;;;;;;;3.33;3.33;;;;;12.93;67.49;100884.94;6246066;22;45196;-62
2022/12/28 13:37:21;;;;;;;;;4.33;3.67;;;;;12.92;67.46;100892.09;6247492;22;45209;-61
2022/12/28 13:39:47;;;;;;;;;4.00;4.00;;;;;12.90;67.82;100870.81;6246641;22;45352;-62
2022/12/28 13:42:33;;;;;;;;;4.00;4.00;;;;;12.90;67.59;100877.97;6247354;22;45304;-62
2022/12/28 13:45:03;;;;;;;;;5.33;2.67;;;;;12.88;67.95;100863.84;6220138;22;45294;-62
2022/12/28 13:47:37;;;;;;;;;5.00;4.00;;;;;12.84;68.58;100856.97;6218933;22;45589;-62
2022/12/28 13:50:24;;;;;;;;;4.00;4.00;;;;;12.78;69.16;100844.84;6246629;22;45320;-61
2022/12/28 13:52:53;;;;;;;;;4.00;4.00;;;;;12.62;72.88;100860.91;6246677;22;45193;-61
2022/12/28 13:55:22;;;;;;;;;5.33;3.33;;;;;12.38;74.77;100844.50;6247109;22;45269;-61
2022/12/28 13:57:50;;;;;;;;;3.00;3.00;;;;;12.15;83.57;100830.66;6246513;22;45238;-62
2022/12/28 14:00:18;;;;;;;;;3.00;3.00;;;;;14.11;95.59;100822.56;6219765;22;45215;-61
2022/12/28 14:02:43;;;;;;;;;4.00;4.00;;;;;12.80;98.14;100815.41;6246237;22;45315;-61
2022/12/28 14:05:16;;;;;;;;;4.67;4.00;;;;;12.46;98.54;100796.03;6219659;22;49700;-62
2022/12/28 14:07:41;;;;;;;;;3.67;3.67;;;;;12.31;100.00;100793.31;6219199;22;45510;-62
2022/12/28 14:10:08;;;;;;;;;4.33;4.33;;;;;12.21;100.00;100794.78;6245997;22;64502;-60
2022/12/28 14:12:33;;;;;;;;;7.00;5.67;;;;;12.18;100.00;100795.81;6219745;22;45404;-62
2022/12/28 14:14:59;;;;;;;;;3.67;3.67;;;;;12.15;97.67;100789.78;6219663;22;45586;-61
2022/12/28 14:17:25;;;;;;;;;5.00;5.00;;;;;12.12;100.00;100798.81;6219633;22;53987;-61
2022/12/28 14:19:51;;;;;;;;;5.00;3.00;;;;;12.12;100.00;100784.63;6219125;22;54740;-61
2022/12/28 14:22:28;;;;;;;;;5.33;4.67;;;;;12.13;99.01;100781.03;6194852;22;45752;-62
2022/12/28 14:25:08;;;;;;;;;3.00;3.00;;;;;12.11;98.87;100775.78;6245789;22;45218;-61
2022/12/28 14:28:02;;;;;;;;;5.67;5.67;;;;;12.09;96.94;100772.34;6219683;22;45373;-61
2022/12/28 14:30:36;;;;;;;;;5.00;5.00;;;;;12.07;100.00;100776.88;6216924;22;45285;-61
2022/12/28 14:33:10;;;;;;;;;4.00;4.00;;;;;12.12;97.20;100753.50;6219540;22;45325;-61
2022/12/28 14:35:36;;;;;;;;;1.00;1.00;;;;;12.13;99.39;100749.88;6220247;22;45225;-62
2022/12/28 14:38:01;;;;;;;;;5.33;5.33;;;;;12.15;96.42;100748.00;6217762;22;62397;-61
2022/12/28 14:40:32;;;;;;;;;3.67;3.67;;;;;14.17;100.00;100742.78;6218886;22;62568;-62
2022/12/28 14:43:17;;;;;;;;;5.33;3.00;;;;;13.11;100.00;100730.78;6219005;22;45399;-60
2022/12/28 14:45:45;;;;;;;;;4.67;4.00;;;;;12.71;100.00;100740.28;6219499;22;45373;-62
2022/12/28 14:48:32;;;;;;;;;7.33;5.00;;;;;12.61;100.00;100749.78;6218137;22;45430;-62
2022/12/28 14:51:01;;;;;;;;;6.00;5.33;;;;;12.60;100.00;100728.53;6219072;22;45316;-62
2022/12/28 14:53:27;;;;;;;;;3.00;3.00;;;;;12.56;100.00;100717.19;6247245;22;45545;-61
2022/12/28 14:55:52;;;;;;;;;4.00;4.00;;;;;12.57;100.00;100729.56;6219775;22;45115;-62
2022/12/28 14:58:27;;;;;;;;;4.33;4.33;;;;;12.45;100.00;100732.94;6246372;22;45353;-62
2022/12/28 15:00:55;;;;;;;;;5.67;5.67;;;;;19.45;100.00;100678.06;6219311;22;45277;-62
2022/12/28 15:03:21;;;;;;;;;6.67;6.67;;;;;15.13;100.00;100716.72;6219795;22;45412;-62
2022/12/28 15:05:49;;;;;;;;;5.00;4.00;;;;;13.86;100.00;100722.53;6244412;22;45387;-62
2022/12/28 15:08:15;;;;;;;;;2.67;2.33;;;;;13.38;100.00;100714.91;6246217;22;45615;-62
2022/12/28 15:10:49;;;;;;;;;8.67;5.00;;;;;13.27;100.00;100720.00;6246341;22;45304;-62
2022/12/28 15:13:16;;;;;;;;;6.33;6.33;;;;;13.14;100.00;100719.91;6246224;22;45284;-62
2022/12/28 15:15:41;;;;;;;;;6.00;6.00;;;;;12.85;100.00;100726.13;6246723;22;45681;-62
2022/12/28 15:18:07;;;;;;;;;5.00;4.33;;;;;12.60;100.00;100710.69;6219582;22;45965;-62
2022/12/28 15:20:34;;;;;;;;;8.67;8.67;;;;;17.91;100.00;100701.00;6246460;22;54250;-62
2022/12/28 15:23:00;;;;;;;;;5.33;5.00;;;;;16.53;100.00;100702.91;6247017;22;45292;-62
2022/12/28 15:25:25;;;;;;;;;7.00;6.00;;;;;13.02;100.00;100697.50;6247082;22;45275;-62
2022/12/28 15:27:51;;;;;;;;;6.33;6.33;;;;;12.41;100.00;100681.59;6245937;22;45940;-62
2022/12/28 15:30:17;;;;;;;;;7.00;4.33;;;;;12.25;100.00;100684.31;6246481;22;45331;-62
2022/12/28 15:32:43;;;;;;;;;6.00;6.00;;;;;12.37;100.00;100682.72;6244972;22;45379;-62
2022/12/28 15:35:08;;;;;;;;;5.00;5.00;;;;;12.11;100.00;100692.25;6246262;22;54604;-62
2022/12/28 15:37:33;;;;;;;;;4.00;4.00;;;;;24.33;100.00;100665.88;6246926;22;45300;-62
2022/12/28 15:39:59;;;;;;;;;7.00;4.00;;;;;13.44;100.00;100673.56;6246270;22;45255;-62
2022/12/28 15:42:24;;;;;;;;;6.33;4.67;;;;;12.52;100.00;100676.47;6242593;22;45384;-64
2022/12/28 15:44:51;;;;;;;;;5.67;5.67;;;;;12.22;100.00;100673.84;6242891;22;59655;-62
2022/12/28 15:47:17;;;;;;;;;6.33;4.00;;;;;11.87;100.00;100658.06;6244618;22;46852;-62
2022/12/28 15:49:42;;;;;;;;;7.00;7.00;;;;;11.67;100.00;100662.72;6238190;22;45657;-63
2022/12/28 15:52:07;;;;;;;;;6.00;4.67;;;;;11.63;100.00;100650.53;6241864;22;58707;-62
2022/12/28 15:54:33;;;;;;;;;5.67;5.67;;;;;11.57;100.00;100675.69;6244982;22;45427;-62
2022/12/28 15:56:58;;;;;;;;;5.00;3.67;;;;;11.60;100.00;100664.00;6245095;22;50019;-62
2022/12/28 15:59:23;;;;;;;;;5.00;5.00;;;;;11.60;100.00;100672.00;6243934;22;62812;-62
2022/12/28 16:01:49;;;;;;;;;4.33;4.33;;;;;11.59;100.00;100656.97;6241667;22;58388;-62
2022/12/28 16:04:14;;;;;;;;;4.33;3.00;;;;;11.54;100.00;100656.38;6244813;22;45388;-62
2022/12/28 16:06:40;;;;;;;;;7.00;5.00;;;;;11.53;100.00;100641.34;6211551;22;45398;-62
2022/12/28 16:09:06;;;;;;;;;5.00;5.00;;;;;11.49;100.00;100653.97;6241650;22;59256;-62
2022/12/28 16:11:33;;;;;;;;;5.00;3.67;;;;;11.47;100.00;100647.00;6244583;22;45278;-62
2022/12/28 16:14:06;;;;;;;;;4.67;4.00;;;;;11.42;100.00;100648.13;6244069;22;45630;-62
2022/12/28 16:16:35;;;;;;;;;4.00;4.00;;;;;11.45;100.00;100635.59;6243680;22;46296;-62
2022/12/28 16:19:02;;;;;;;;;5.00;5.00;;;;;11.47;100.00;100633.69;6242078;22;45734;-62
2022/12/28 16:21:28;;;;;;;;;4.00;4.00;;;;;11.42;100.00;100641.94;6244254;22;45269;-63
2022/12/28 16:23:53;;;;;;;;;7.00;6.00;;;;;11.37;100.00;100644.84;6244483;22;45343;-64
2022/12/28 16:26:19;;;;;;;;;6.67;6.00;;;;;11.39;100.00;100634.13;6243783;22;45391;-64
2022/12/28 16:28:45;;;;;;;;;7.00;5.33;;;;;11.40;100.00;100652.66;6244510;22;45319;-64
2022/12/28 16:31:22;;;;;;;;;4.33;4.33;;;;;11.40;100.00;100635.84;6243893;22;45324;-63
2022/12/28 16:33:51;;;;;;;;;7.00;7.00;;;;;11.45;100.00;100627.59;6244332;22;45382;-62
2022/12/28 16:36:18;;;;;;;;;5.67;4.00;;;;;11.45;100.00;100595.66;6242826;22;45690;-63
2022/12/28 16:38:44;;;;;;;;;7.00;6.33;;;;;11.50;100.00;100641.50;6244113;22;45457;-63
2022/12/28 16:41:11;;;;;;;;;5.00;4.00;;;;;11.49;100.00;100629.13;6242591;22;45346;-62
2022/12/28 16:43:37;;;;;;;;;5.00;3.00;;;;;11.60;100.00;100618.72;6245475;22;45269;-62
2022/12/28 16:46:06;;;;;;;;;5.00;5.00;;;;;11.50;100.00;100622.84;6244275;22;46035;-63
2022/12/28 16:48:31;;;;;;;;;8.67;7.67;;;;;11.52;100.00;100604.97;6244500;22;45719;-62
2022/12/28 16:50:58;;;;;;;;;4.00;4.00;;;;;11.57;100.00;100621.56;6240908;22;45870;-63
2022/12/28 16:53:24;;;;;;;;;6.33;6.00;;;;;11.64;100.00;100622.94;6244439;22;45640;-62
2022/12/28 16:55:49;;;;;;;;;5.67;5.67;;;;;11.73;100.00;100613.53;6244190;22;46308;-63
2022/12/28 16:58:14;;;;;;;;;6.00;6.00;;;;;11.84;100.00;100618.28;6242219;22;45288;-63
2022/12/28 17:00:40;;;;;;;;;9.33;5.67;;;;;11.91;100.00;100611.63;6244767;22;45251;-63
2022/12/28 17:03:05;;;;;;;;;5.33;5.00;;;;;11.97;100.00;100611.28;6242859;22;61258;-62
2022/12/28 17:05:33;;;;;;;;;5.00;4.67;;;;;12.01;100.00;100602.16;6245819;22;46061;-63
2022/12/28 17:07:58;;;;;;;;;6.33;6.33;;;;;12.07;100.00;100598.28;6245094;22;45383;-63